Oran, Argentina
Current Conditions -  °F | °C
As of 7:00 AM on Thursday 23 Oct 2014 (Local Time) from SLYA Reporting Station
Broken Clouds Broken Clouds  
Wind Chill: 20°   Ceiling: 7000
Heat Index: 20°   Visibility: 5mi
Dew Point: 19°   Wind: 7mph
Humidity: 94%   Direction: 180°S
Pressure: 30.03"   Gusts: NA
Location:  23.14°S, 64.32°W
Report Text: SLYA 231000Z 18006KT 8000 FEW006 SCT015 BKN070 20/19 Q1017
Loading
Personal Weather Stations






























Interactive Weather Map
Tropical Storm Tracking
New forecast layout! Learn more

10-Day Weather Forecast

Advertisements
Track Severe Weather on mobile